Аэропорт: Мурманск. Мурманск

ICAO: ULMM

METAR:
2018/05/20 19:00
ULMM 201900Z 15002MPS 9999 SCT036 11/M02 Q1012 R31/090070 NOSIG RMK QFE752
METAR:
2018/05/20 18:27
TAF TAF ULMM 201650Z 2018/2118 23003G08MPS 9999 BKN015 
      TEMPO 2018/2109 26005G10MPS 4000 -SHRA BKN013CB 
      BECMG 2109/2111 28003G08MPS 
      TEMPO 2111/2118 32005G12MPS 4000 -SHRA BKN013CB